X  Schlie├čen METAR Luftfahrt Wetterdaten     EDDH Hamburg Helmut Schmidt Airport
Temperatur
13°C Temperatur
10°C Taupunkt
82% Feuchtigkeit



Wind
11 KM/S
7 MPS
3 M/S
6 KTS



300°
WNW
Aktuelle Wetterlage

Leicht  Regenschauer Regen Leicht Regenschauer Regen
Luftdruck 1015.92 (hPa) - 30 (inHg)
Sichtweite 6 (Meile) - 9.7 (Km)
Flughafen
Flughafen Code EDDH

Position : Hamburg Helmut Schmidt Airport
Entfernung: 11 (Km)

Metar:
EDDH 281550Z AUTO 30006KT 9999 -SHRA FEW022 BKN039 FEW///CB 13/10 Q1016 RESHRA TEMPO SHRA SCT030CB

Zeit: 28-05-2024 17:50 CEST